createdAt,value
2023-03-04T00:00:48.052Z,5.82
2023-03-04T00:03:15.796Z,7.63
2023-03-04T00:05:42.956Z,6.68
2023-03-04T00:08:09.996Z,6.65
2023-03-04T00:10:38.426Z,5.57
2023-03-04T00:13:05.488Z,6.32
2023-03-04T00:15:32.833Z,5.90
2023-03-04T00:17:59.845Z,7.75
2023-03-04T00:20:26.934Z,7.10
2023-03-04T00:22:54.359Z,7.72
2023-03-04T00:25:21.414Z,6.63
2023-03-04T00:27:48.677Z,7.03
2023-03-04T00:30:16.032Z,6.65
2023-03-04T00:32:43.859Z,6.32
2023-03-04T00:35:11.235Z,6.25
2023-03-04T00:37:38.404Z,6.60
2023-03-04T00:40:06.468Z,5.53
2023-03-04T00:42:33.453Z,6.20
2023-03-04T00:45:00.845Z,6.60
2023-03-04T00:47:27.978Z,7.47
2023-03-04T00:49:55.025Z,5.82
2023-03-04T00:52:22.046Z,5.47
2023-03-04T00:54:49.330Z,7.50
2023-03-04T00:57:16.147Z,7.63
2023-03-04T00:59:43.929Z,5.68
2023-03-04T01:02:11.385Z,7.25
2023-03-04T01:04:38.929Z,7.07
2023-03-04T01:07:06.165Z,6.40
2023-03-04T01:09:33.391Z,6.15
2023-03-04T01:12:00.668Z,7.47
2023-03-04T01:14:28.458Z,8.13
2023-03-04T01:16:56.165Z,7.47
2023-03-04T01:19:23.471Z,7.53
2023-03-04T01:21:50.890Z,7.03
2023-03-04T01:24:18.079Z,7.15
2023-03-04T01:26:45.678Z,7.55
2023-03-04T01:29:13.165Z,8.48
2023-03-04T01:31:41.001Z,6.63
2023-03-04T01:34:10.268Z,7.95
2023-03-04T01:36:37.707Z,8.77
2023-03-04T01:39:05.306Z,8.00
2023-03-04T01:41:32.980Z,8.63
2023-03-04T01:44:02.584Z,9.02
2023-03-04T01:46:31.683Z,7.65
2023-03-04T01:48:59.450Z,8.88
2023-03-04T01:51:26.727Z,8.38
2023-03-04T01:53:55.148Z,9.65
2023-03-04T01:56:52.013Z,9.18
2023-03-04T01:59:26.694Z,7.47
2023-03-04T02:02:00.162Z,6.60
2023-03-04T02:04:29.830Z,9.85
2023-03-04T02:06:58.418Z,9.10
2023-03-04T02:09:25.679Z,8.10
2023-03-04T02:11:53.598Z,6.28
2023-03-04T02:14:21.239Z,9.10
2023-03-04T02:16:49.595Z,5.95
2023-03-04T02:19:32.169Z,8.27
2023-03-04T02:21:59.581Z,8.98
2023-03-04T02:24:32.696Z,8.85
2023-03-04T02:27:00.124Z,9.95
2023-03-04T02:29:29.123Z,8.07
2023-03-04T02:31:56.879Z,7.82
2023-03-04T02:34:43.118Z,8.77
2023-03-04T02:37:11.794Z,6.97
2023-03-04T02:39:47.676Z,7.65
2023-03-04T02:42:16.315Z,8.32
2023-03-04T02:44:47.849Z,7.30
2023-03-04T02:47:18.470Z,8.38
2023-03-04T02:49:47.315Z,6.60
2023-03-04T02:52:20.624Z,9.27
2023-03-04T02:54:47.842Z,8.07
2023-03-04T02:57:16.660Z,7.00
2023-03-04T02:59:47.164Z,7.88
2023-03-04T03:02:18.759Z,7.22
2023-03-04T03:04:46.295Z,8.52
2023-03-04T03:07:15.951Z,9.07
2023-03-04T03:09:43.624Z,8.75
2023-03-04T03:12:11.032Z,6.78
2023-03-04T03:14:38.296Z,9.00
2023-03-04T03:17:06.604Z,7.22
2023-03-04T03:19:33.787Z,8.07
2023-03-04T03:22:04.015Z,8.43
2023-03-04T03:24:31.163Z,9.23
2023-03-04T03:26:58.372Z,7.68
2023-03-04T03:29:25.678Z,7.75
2023-03-04T03:31:53.480Z,7.25
2023-03-04T03:34:21.567Z,8.93
2023-03-04T03:36:49.946Z,10.45
2023-03-04T03:39:17.869Z,7.60
2023-03-04T03:41:45.129Z,8.82
2023-03-04T03:44:12.482Z,9.45
2023-03-04T03:46:39.743Z,9.07
2023-03-04T03:49:07.448Z,8.75
2023-03-04T03:51:35.427Z,7.68
2023-03-04T03:54:02.852Z,10.07
2023-03-04T03:56:30.196Z,8.93
2023-03-04T03:58:57.677Z,8.18
2023-03-04T04:01:24.777Z,8.60
2023-03-04T04:03:51.965Z,10.70
2023-03-04T04:06:19.260Z,7.45
2023-03-04T04:08:46.409Z,4.53
2023-03-04T04:11:13.626Z,7.15
2023-03-04T04:13:40.642Z,5.53
2023-03-04T04:16:08.747Z,8.38
2023-03-04T04:18:36.085Z,8.07
2023-03-04T04:21:03.950Z,5.72
2023-03-04T04:23:31.279Z,6.82
2023-03-04T04:25:59.206Z,5.32
2023-03-04T04:28:26.466Z,6.93
2023-03-04T04:30:53.556Z,7.20
2023-03-04T04:33:20.729Z,8.75
2023-03-04T04:35:48.066Z,3.97
2023-03-04T04:38:15.138Z,5.13
2023-03-04T04:40:43.114Z,5.68
2023-03-04T04:43:10.471Z,5.88
2023-03-04T04:45:37.482Z,9.18
2023-03-04T04:48:04.982Z,9.35
2023-03-04T04:50:33.125Z,6.70
2023-03-04T04:53:00.750Z,8.25
2023-03-04T04:55:28.626Z,8.85
2023-03-04T04:57:56.017Z,5.80
2023-03-04T05:00:23.343Z,7.40
2023-03-04T05:02:50.524Z,8.38
2023-03-04T05:05:17.746Z,8.82
2023-03-04T05:07:44.907Z,5.90
2023-03-04T05:10:12.294Z,5.93
2023-03-04T05:12:39.433Z,7.20
2023-03-04T05:15:06.821Z,7.38
2023-03-04T05:17:33.788Z,8.48
2023-03-04T05:20:00.982Z,7.45
2023-03-04T05:22:27.977Z,6.32
2023-03-04T05:24:55.437Z,7.07
2023-03-04T05:27:22.674Z,8.18
2023-03-04T05:29:49.842Z,7.63
2023-03-04T05:32:16.945Z,7.68
2023-03-04T05:34:44.304Z,8.65
2023-03-04T05:37:11.505Z,6.05
2023-03-04T05:39:38.685Z,6.82
2023-03-04T05:42:05.818Z,8.65
2023-03-04T05:44:32.844Z,7.07
2023-03-04T05:46:59.884Z,6.90
2023-03-04T05:49:27.018Z,6.95
2023-03-04T05:51:54.367Z,5.80
2023-03-04T05:54:21.829Z,7.22
2023-03-04T05:56:48.888Z,7.82
2023-03-04T05:59:20.707Z,6.57
2023-03-04T06:01:48.664Z,7.13
2023-03-04T06:04:15.903Z,5.88
2023-03-04T06:06:43.060Z,6.10
2023-03-04T06:09:10.448Z,7.55
2023-03-04T06:11:37.519Z,7.03
2023-03-04T06:14:04.528Z,6.35
2023-03-04T06:16:31.930Z,8.52
2023-03-04T06:18:59.390Z,6.10
2023-03-04T06:21:26.696Z,5.75
2023-03-04T06:23:53.780Z,8.40
2023-03-04T06:26:20.853Z,8.20
2023-03-04T06:28:47.969Z,8.38
2023-03-04T06:31:15.439Z,9.07
2023-03-04T06:33:42.529Z,5.70
2023-03-04T06:36:09.693Z,8.10
2023-03-04T06:38:36.800Z,9.38
2023-03-04T06:41:11.678Z,8.05
2023-03-04T06:43:39.920Z,7.72
2023-03-04T06:46:07.905Z,6.75
2023-03-04T06:48:35.096Z,8.02
2023-03-04T06:51:06.913Z,6.90
2023-03-04T06:53:33.874Z,6.88
2023-03-04T06:56:00.973Z,7.57
2023-03-04T06:58:28.036Z,8.35
2023-03-04T07:00:55.063Z,8.23
2023-03-04T07:03:22.480Z,8.18
2023-03-04T07:05:50.386Z,7.75
2023-03-04T07:08:17.443Z,8.65
2023-03-04T07:10:44.622Z,9.10
2023-03-04T07:13:11.815Z,8.07
2023-03-04T07:15:38.925Z,7.80
2023-03-04T07:18:06.127Z,7.32
2023-03-04T07:20:33.269Z,8.68
2023-03-04T07:23:00.514Z,7.80
2023-03-04T07:25:27.734Z,8.77
2023-03-04T07:27:54.802Z,9.90
2023-03-04T07:30:23.447Z,10.15
2023-03-04T07:32:50.719Z,9.10
2023-03-04T07:35:18.123Z,9.82
2023-03-04T07:37:45.834Z,9.88
2023-03-04T07:40:13.176Z,11.00
2023-03-04T07:42:40.422Z,11.45
2023-03-04T07:45:12.068Z,9.45
2023-03-04T07:47:40.055Z,10.30
2023-03-04T07:50:07.716Z,10.55
2023-03-04T07:52:38.924Z,10.52
2023-03-04T07:55:06.576Z,9.48
2023-03-04T07:57:33.706Z,9.63
2023-03-04T08:00:01.318Z,10.20
2023-03-04T08:02:30.497Z,8.48
2023-03-04T08:04:57.559Z,6.65
2023-03-04T08:07:24.781Z,6.85
2023-03-04T08:09:51.916Z,7.93
2023-03-04T08:12:19.288Z,10.02
2023-03-04T08:14:46.391Z,7.38
2023-03-04T08:17:14.951Z,9.68
2023-03-04T08:19:42.092Z,9.40
2023-03-04T08:22:09.808Z,10.20
2023-03-04T08:24:37.199Z,8.70
2023-03-04T08:27:05.423Z,6.43
2023-03-04T08:29:32.635Z,9.68
2023-03-04T08:32:00.021Z,7.85
2023-03-04T08:34:28.440Z,7.28
2023-03-04T08:36:56.292Z,7.47
2023-03-04T08:39:23.467Z,6.40
2023-03-04T08:41:50.789Z,7.22
2023-03-04T08:44:18.122Z,7.32
2023-03-04T08:46:45.587Z,7.18
2023-03-04T08:49:15.321Z,7.28
2023-03-04T08:51:43.127Z,7.97
2023-03-04T08:54:10.643Z,7.13
2023-03-04T08:56:38.194Z,7.72
2023-03-04T08:59:05.628Z,7.47
2023-03-04T09:01:33.166Z,6.13
2023-03-04T09:04:00.736Z,6.80
2023-03-04T09:06:27.833Z,6.40
2023-03-04T09:08:55.078Z,7.13
2023-03-04T09:11:22.710Z,5.10
2023-03-04T09:13:51.807Z,4.88
2023-03-04T09:16:19.568Z,6.82
2023-03-04T09:18:46.784Z,6.63
2023-03-04T09:21:13.986Z,7.25
2023-03-04T09:23:41.613Z,5.57
2023-03-04T09:26:26.777Z,5.50
2023-03-04T09:28:57.431Z,6.00
2023-03-04T09:31:25.749Z,7.47
2023-03-04T09:33:53.881Z,5.80
2023-03-04T09:36:22.219Z,5.45
2023-03-04T09:38:49.767Z,6.03
2023-03-04T09:41:22.150Z,6.05
2023-03-04T09:43:51.701Z,6.20
2023-03-04T09:46:36.335Z,5.40
2023-03-04T09:49:06.730Z,5.93
2023-03-04T09:51:45.580Z,6.50
2023-03-04T09:54:26.697Z,4.95
2023-03-04T09:57:00.532Z,5.15
2023-03-04T09:59:43.572Z,4.28
2023-03-04T10:04:56.647Z,4.70
2023-03-04T10:07:32.062Z,4.28
2023-03-04T10:10:22.478Z,6.97
2023-03-04T10:12:53.537Z,4.75
2023-03-04T10:15:51.818Z,5.20
2023-03-04T10:18:23.262Z,5.68
2023-03-04T10:21:03.035Z,4.28
2023-03-04T10:23:33.963Z,5.40
2023-03-04T10:26:15.838Z,6.00
2023-03-04T10:28:47.655Z,7.47
2023-03-04T10:31:35.904Z,5.00
2023-03-04T10:34:06.045Z,6.05
2023-03-04T10:37:01.037Z,4.50
2023-03-04T10:39:35.292Z,5.30
2023-03-04T10:42:05.176Z,6.53
2023-03-04T10:44:35.083Z,4.95
2023-03-04T10:47:02.365Z,5.35
2023-03-04T10:49:31.508Z,5.43
2023-03-04T10:52:21.844Z,6.35
2023-03-04T10:54:53.345Z,6.35
2023-03-04T10:58:05.238Z,6.60
2023-03-04T11:00:37.383Z,6.15
2023-03-04T11:03:36.268Z,6.53
2023-03-04T11:06:13.455Z,5.65
2023-03-04T11:08:42.927Z,5.07
2023-03-04T11:11:35.209Z,5.07
2023-03-04T11:14:17.565Z,5.47
2023-03-04T11:16:57.796Z,4.40
2023-03-04T11:19:35.930Z,3.88
2023-03-04T11:22:03.946Z,5.53
2023-03-04T11:24:35.254Z,5.28
2023-03-04T11:27:19.137Z,6.55
2023-03-04T11:29:55.572Z,4.55
2023-03-04T11:32:28.895Z,4.75
2023-03-04T11:35:30.460Z,5.43
2023-03-04T11:38:17.966Z,5.20
2023-03-04T11:41:11.300Z,5.00
2023-03-04T11:43:47.284Z,4.32
2023-03-04T11:46:36.449Z,5.28
2023-03-04T11:50:01.102Z,5.80
2023-03-04T11:53:09.791Z,6.38
2023-03-04T11:56:11.757Z,4.75
2023-03-04T11:58:51.255Z,4.75
2023-03-04T12:01:29.079Z,4.10
2023-03-04T12:04:07.565Z,7.07
2023-03-04T12:06:47.183Z,6.25
2023-03-04T12:09:45.706Z,5.93
2023-03-04T12:12:24.933Z,4.63
2023-03-04T12:15:19.853Z,6.40
2023-03-04T12:17:59.319Z,5.20
2023-03-04T12:20:57.322Z,4.88
2023-03-04T12:24:09.410Z,5.10
2023-03-04T12:26:51.522Z,4.10
2023-03-04T12:29:52.498Z,4.77
2023-03-04T12:33:12.035Z,5.85
2023-03-04T12:35:59.156Z,4.47
2023-03-04T12:38:46.856Z,4.15
2023-03-04T12:41:23.491Z,6.13
2023-03-04T12:44:20.268Z,6.05
2023-03-04T12:47:12.143Z,5.00
2023-03-04T12:50:05.264Z,6.13
2023-03-04T12:53:01.169Z,5.53
2023-03-04T12:55:42.345Z,4.72
2023-03-04T12:58:31.627Z,5.80
2023-03-04T13:01:24.186Z,6.63
2023-03-04T13:04:05.421Z,5.63
2023-03-04T13:06:49.187Z,6.57
2023-03-04T13:09:41.448Z,5.55
2023-03-04T13:12:24.399Z,4.25
2023-03-04T13:15:12.801Z,3.90
2023-03-04T13:17:49.803Z,4.38
2023-03-04T13:20:39.355Z,5.50
2023-03-04T13:23:09.334Z,5.63
2023-03-04T13:25:46.997Z,4.72
2023-03-04T13:28:19.404Z,4.18
2023-03-04T13:30:53.598Z,4.95
2023-03-04T13:33:24.039Z,4.32
2023-03-04T13:36:06.763Z,4.28
2023-03-04T13:38:37.517Z,3.35
2023-03-04T13:41:19.852Z,4.30
2023-03-04T13:43:48.261Z,2.75
2023-03-04T13:46:18.789Z,3.97
2023-03-04T13:48:55.049Z,3.08
2023-03-04T13:51:52.372Z,4.70
2023-03-04T13:54:19.896Z,2.70
2023-03-04T13:56:50.356Z,2.58
2023-03-04T13:59:36.171Z,4.32
2023-03-04T14:02:12.241Z,3.95
2023-03-04T14:04:45.949Z,3.40
2023-03-04T14:07:28.262Z,3.35
2023-03-04T14:10:02.039Z,3.70
2023-03-04T14:12:31.066Z,2.97
2023-03-04T14:15:01.668Z,2.72
2023-03-04T14:17:32.615Z,2.95
2023-03-04T14:20:01.588Z,3.67
2023-03-04T14:22:34.146Z,4.43
2023-03-04T14:25:26.937Z,4.18
2023-03-04T14:28:12.261Z,3.22
2023-03-04T14:30:43.644Z,1.75
2023-03-04T14:33:44.824Z,4.40
2023-03-04T14:36:19.196Z,2.45
2023-03-04T14:38:52.944Z,4.38
2023-03-04T14:41:34.640Z,2.83
2023-03-04T14:44:24.161Z,3.53
2023-03-04T14:47:07.074Z,2.83
2023-03-04T14:49:37.323Z,2.90
2023-03-04T14:52:05.073Z,3.08
2023-03-04T14:54:41.692Z,2.83
2023-03-04T14:57:24.131Z,2.90
2023-03-04T14:59:52.378Z,2.45
2023-03-04T15:02:39.392Z,2.80
2023-03-04T15:05:27.114Z,2.47
2023-03-04T15:07:58.100Z,3.67
2023-03-04T15:10:38.604Z,2.95
2023-03-04T15:13:08.888Z,3.10
2023-03-04T15:15:43.049Z,2.08
2023-03-04T15:18:13.228Z,3.03
2023-03-04T15:20:40.814Z,3.30
2023-03-04T15:23:08.825Z,2.78
2023-03-04T15:25:37.101Z,3.70
2023-03-04T15:28:07.192Z,4.57
2023-03-04T15:30:35.877Z,3.05
2023-03-04T15:33:03.227Z,2.85
2023-03-04T15:35:33.554Z,4.03
2023-03-04T15:38:02.019Z,3.28
2023-03-04T15:40:29.272Z,2.55
2023-03-04T15:42:58.385Z,2.60
2023-03-04T15:45:32.739Z,2.35
2023-03-04T15:47:59.879Z,3.58
2023-03-04T15:50:31.041Z,2.85
2023-03-04T15:53:02.468Z,3.92
2023-03-04T15:55:32.003Z,3.47
2023-03-04T15:58:00.774Z,3.17
2023-03-04T16:00:28.161Z,2.53
2023-03-04T16:02:55.838Z,3.58
2023-03-04T16:05:22.895Z,3.17
2023-03-04T16:07:51.593Z,2.15
2023-03-04T16:10:21.883Z,2.00
2023-03-04T16:12:49.022Z,3.60
2023-03-04T16:15:22.359Z,4.00
2023-03-04T16:17:49.917Z,2.67
2023-03-04T16:20:24.764Z,3.60
2023-03-04T16:22:55.461Z,2.83
2023-03-04T16:25:24.336Z,2.15
2023-03-04T16:27:53.080Z,2.63
2023-03-04T16:30:23.763Z,3.92
2023-03-04T16:32:50.986Z,3.35
2023-03-04T16:35:20.542Z,1.65
2023-03-04T16:37:47.743Z,2.15
2023-03-04T16:40:17.158Z,2.88
2023-03-04T16:42:44.324Z,4.00
2023-03-04T16:45:23.982Z,2.83
2023-03-04T16:47:51.278Z,3.22
2023-03-04T16:50:21.238Z,2.90
2023-03-04T16:52:49.540Z,3.05
2023-03-04T16:55:30.607Z,3.33
2023-03-04T16:57:58.591Z,2.90
2023-03-04T17:00:28.505Z,2.28
2023-03-04T17:03:01.354Z,2.05
2023-03-04T17:05:31.517Z,2.25
2023-03-04T17:07:58.889Z,2.55
2023-03-04T17:10:26.602Z,3.10
2023-03-04T17:12:53.757Z,3.38
2023-03-04T17:15:21.609Z,2.65
2023-03-04T17:17:48.857Z,2.65
2023-03-04T17:20:19.003Z,4.25
2023-03-04T17:22:46.156Z,2.20
2023-03-04T17:25:13.474Z,2.58
2023-03-04T17:27:41.041Z,3.83
2023-03-04T17:30:11.528Z,3.80
2023-03-04T17:32:40.088Z,4.78
2023-03-04T17:35:09.112Z,3.08
2023-03-04T17:37:36.704Z,2.83
2023-03-04T17:40:14.400Z,2.83
2023-03-04T17:42:43.158Z,2.88
2023-03-04T17:45:11.292Z,2.95
2023-03-04T17:47:39.407Z,3.17
2023-03-04T17:50:08.046Z,3.65
2023-03-04T17:52:35.303Z,3.40
2023-03-04T17:55:02.478Z,2.28
2023-03-04T17:57:29.794Z,2.92
2023-03-04T17:59:57.913Z,3.80
2023-03-04T18:02:24.855Z,2.95
2023-03-04T18:04:52.057Z,2.88
2023-03-04T18:07:19.182Z,2.90
2023-03-04T18:09:47.497Z,2.47
2023-03-04T18:12:15.267Z,3.05
2023-03-04T18:14:42.316Z,2.88
2023-03-04T18:17:09.509Z,2.28
2023-03-04T18:19:36.896Z,2.85
2023-03-04T18:22:03.991Z,2.40
2023-03-04T18:24:31.373Z,3.58
2023-03-04T18:26:58.691Z,3.45
2023-03-04T18:29:26.147Z,4.10
2023-03-04T18:31:53.739Z,3.10
2023-03-04T18:34:20.777Z,4.20
2023-03-04T18:36:48.206Z,3.88
2023-03-04T18:39:17.641Z,4.20
2023-03-04T18:41:45.027Z,3.20
2023-03-04T18:44:14.862Z,3.38
2023-03-04T18:46:48.465Z,3.85
2023-03-04T18:49:15.865Z,3.40
2023-03-04T18:51:43.062Z,3.53
2023-03-04T18:54:10.240Z,4.18
2023-03-04T18:56:59.848Z,3.80
2023-03-04T18:59:37.130Z,4.75
2023-03-04T19:02:09.997Z,3.58
2023-03-04T19:04:37.354Z,6.35
2023-03-04T19:07:04.599Z,3.50
2023-03-04T19:09:31.899Z,3.67
2023-03-04T19:11:59.248Z,4.88
2023-03-04T19:14:26.600Z,3.30
2023-03-04T19:16:53.660Z,4.10
2023-03-04T19:19:20.706Z,4.25
2023-03-04T19:21:47.901Z,5.43
2023-03-04T19:24:15.239Z,5.00
2023-03-04T19:26:42.463Z,5.55
2023-03-04T19:29:09.708Z,4.70
2023-03-04T19:31:41.164Z,4.18
2023-03-04T19:34:09.597Z,4.57
2023-03-04T19:36:36.578Z,3.97
2023-03-04T19:39:03.876Z,3.20
2023-03-04T19:41:31.076Z,4.65
2023-03-04T19:43:58.458Z,4.13
2023-03-04T19:46:27.719Z,4.55
2023-03-04T19:48:54.771Z,4.40
2023-03-04T19:51:29.468Z,4.97
2023-03-04T19:53:56.704Z,5.35
2023-03-04T19:56:24.080Z,4.25
2023-03-04T19:58:55.356Z,3.78
2023-03-04T20:01:28.529Z,4.18
2023-03-04T20:04:01.312Z,4.30
2023-03-04T20:08:58.894Z,3.97
2023-03-04T20:11:27.208Z,3.80
2023-03-04T20:13:55.390Z,4.35
2023-03-04T20:16:22.481Z,4.65
2023-03-04T20:18:52.579Z,3.10
2023-03-04T20:21:19.815Z,3.92
2023-03-04T20:23:47.324Z,1.13
2023-03-04T20:26:14.693Z,0.20
2023-03-04T20:29:23.877Z,0.28
2023-03-04T20:31:52.979Z,0.35
2023-03-04T20:34:20.670Z,0.43
2023-03-04T20:36:48.040Z,0.35
2023-03-04T20:39:28.099Z,0.20
2023-03-04T20:41:58.242Z,0.75
2023-03-04T20:44:26.074Z,0.30
2023-03-04T20:46:53.440Z,0.60
2023-03-04T20:49:24.570Z,0.57
2023-03-04T20:52:03.461Z,0.45
2023-03-04T20:54:31.181Z,0.63
2023-03-04T20:56:58.977Z,0.10
2023-03-04T20:59:26.425Z,0.40
2023-03-04T21:01:54.700Z,0.25
2023-03-04T21:04:23.494Z,0.40
2023-03-04T21:06:52.092Z,0.47
2023-03-04T21:09:21.850Z,0.10
2023-03-04T21:11:51.598Z,0.40
2023-03-04T21:14:24.628Z,0.70
2023-03-04T21:16:57.463Z,0.50
2023-03-04T21:19:30.659Z,0.30
2023-03-04T21:21:59.325Z,0.13
2023-03-04T21:24:29.415Z,0.40
2023-03-04T21:26:57.155Z,0.20
2023-03-04T21:29:28.340Z,0.20
2023-03-04T21:32:12.962Z,0.45
2023-03-04T21:34:48.392Z,0.10
2023-03-04T21:37:15.739Z,0.20
2023-03-04T21:42:15.448Z,1.17
2023-03-04T21:44:49.682Z,0.57
2023-03-04T21:47:18.682Z,0.55
2023-03-04T21:49:46.411Z,0.40
2023-03-04T21:52:14.230Z,1.65
2023-03-04T21:54:41.526Z,1.30
2023-03-04T21:57:09.038Z,0.25
2023-03-04T21:59:36.352Z,0.50
2023-03-04T22:02:07.447Z,0.90
2023-03-04T22:04:34.583Z,0.08
2023-03-04T22:07:02.394Z,0.25
2023-03-04T22:09:29.908Z,0.20
2023-03-04T22:11:57.506Z,0.20
2023-03-04T22:14:25.237Z,0.52
2023-03-04T22:16:55.721Z,0.10
2023-03-04T22:19:25.434Z,0.20
2023-03-04T22:21:53.594Z,0.20
2023-03-04T22:24:21.367Z,0.20
2023-03-04T22:26:49.545Z,0.30
2023-03-04T22:29:16.979Z,0.38
2023-03-04T22:31:45.700Z,0.43
2023-03-04T22:34:15.086Z,0.35
2023-03-04T22:36:45.411Z,0.40
2023-03-04T22:39:20.735Z,0.38
2023-03-04T22:41:48.054Z,0.40
2023-03-04T22:44:15.695Z,0.00
2023-03-04T22:46:43.989Z,0.45
2023-03-04T22:49:13.991Z,0.82
2023-03-04T22:51:43.260Z,0.10
2023-03-04T22:54:15.360Z,0.10
2023-03-04T22:56:42.792Z,0.00
2023-03-04T22:59:10.363Z,0.00
2023-03-04T23:01:37.604Z,0.00
2023-03-04T23:04:05.166Z,0.08
2023-03-04T23:06:33.164Z,0.30
2023-03-04T23:09:00.809Z,0.25
2023-03-04T23:11:31.201Z,0.13
2023-03-04T23:13:59.312Z,0.13
2023-03-04T23:16:28.763Z,0.28
2023-03-04T23:18:58.210Z,0.05
2023-03-04T23:21:28.523Z,0.43
2023-03-04T23:23:56.202Z,0.10
2023-03-04T23:26:26.452Z,0.50
2023-03-04T23:28:56.174Z,0.00
2023-03-04T23:31:23.598Z,0.40
2023-03-04T23:33:51.300Z,0.30
2023-03-04T23:36:19.749Z,0.00
2023-03-04T23:38:48.765Z,0.15
2023-03-04T23:41:19.361Z,0.05
2023-03-04T23:43:47.876Z,0.10
2023-03-04T23:46:15.706Z,0.00
2023-03-04T23:48:46.571Z,0.00
2023-03-04T23:51:16.711Z,0.00
2023-03-04T23:53:44.649Z,0.63
2023-03-04T23:56:15.740Z,0.20
2023-03-04T23:58:48.560Z,0.17
